createdAt,value
2022-12-25T00:00:08.472Z,25.80
2022-12-25T00:00:29.706Z,27.80
2022-12-25T00:00:50.842Z,26.20
2022-12-25T00:01:11.943Z,31.00
2022-12-25T00:01:32.989Z,30.50
2022-12-25T00:01:54.045Z,28.80
2022-12-25T00:02:15.184Z,26.00
2022-12-25T00:02:36.327Z,28.10
2022-12-25T00:02:57.527Z,29.60
2022-12-25T00:03:18.814Z,26.60
2022-12-25T00:03:40.123Z,24.80
2022-12-25T00:04:01.406Z,26.50
2022-12-25T00:04:22.502Z,27.20
2022-12-25T00:04:43.542Z,27.90
2022-12-25T00:05:04.606Z,23.90
2022-12-25T00:05:25.721Z,28.80
2022-12-25T00:05:46.767Z,26.90
2022-12-25T00:06:07.828Z,26.50
2022-12-25T00:06:28.919Z,25.70
2022-12-25T00:06:49.967Z,28.70
2022-12-25T00:07:11.031Z,31.10
2022-12-25T00:07:32.099Z,30.00
2022-12-25T00:07:53.154Z,26.60
2022-12-25T00:08:14.264Z,25.40
2022-12-25T00:08:35.278Z,28.30
2022-12-25T00:08:56.331Z,28.90
2022-12-25T00:09:17.389Z,29.30
2022-12-25T00:09:38.443Z,30.20
2022-12-25T00:09:59.502Z,31.20
2022-12-25T00:10:20.576Z,32.80
2022-12-25T00:10:45.310Z,31.80
2022-12-25T00:11:06.746Z,27.20
2022-12-25T00:11:27.808Z,30.60
2022-12-25T00:11:48.856Z,31.30
2022-12-25T00:12:09.915Z,28.60
2022-12-25T00:12:30.986Z,28.70
2022-12-25T00:12:52.071Z,29.30
2022-12-25T00:13:13.119Z,28.70
2022-12-25T00:13:34.191Z,30.50
2022-12-25T00:13:55.223Z,30.50
2022-12-25T00:14:16.289Z,29.10
2022-12-25T00:14:37.341Z,28.40
2022-12-25T00:14:58.427Z,28.80
2022-12-25T00:15:19.457Z,30.80
2022-12-25T00:15:40.547Z,33.40
2022-12-25T00:16:01.628Z,28.50
2022-12-25T00:16:22.864Z,27.50
2022-12-25T00:16:43.989Z,31.70
2022-12-25T00:17:05.081Z,27.50
2022-12-25T00:17:26.123Z,28.50
2022-12-25T00:17:47.179Z,30.70
2022-12-25T00:18:08.252Z,28.10
2022-12-25T00:18:29.296Z,26.90
2022-12-25T00:18:50.351Z,28.40
2022-12-25T00:19:11.410Z,28.00
2022-12-25T00:19:32.525Z,28.60
2022-12-25T00:19:53.561Z,28.70
2022-12-25T00:20:14.627Z,28.70
2022-12-25T00:20:35.681Z,27.90
2022-12-25T00:20:56.739Z,27.50
2022-12-25T00:21:17.800Z,30.70
2022-12-25T00:21:38.901Z,28.90
2022-12-25T00:21:59.961Z,29.20
2022-12-25T00:22:20.992Z,29.50
2022-12-25T00:22:42.051Z,26.80
2022-12-25T00:23:03.111Z,26.20
2022-12-25T00:23:24.176Z,28.00
2022-12-25T00:23:45.267Z,29.20
2022-12-25T00:24:06.316Z,30.10
2022-12-25T00:24:27.362Z,27.50
2022-12-25T00:24:48.446Z,25.40
2022-12-25T00:25:09.503Z,25.70
2022-12-25T00:25:30.540Z,29.20
2022-12-25T00:25:51.609Z,31.50
2022-12-25T00:26:12.667Z,29.20
2022-12-25T00:26:33.721Z,28.60
2022-12-25T00:26:54.806Z,25.80
2022-12-25T00:27:15.872Z,25.80
2022-12-25T00:27:36.935Z,25.50
2022-12-25T00:27:57.998Z,25.60
2022-12-25T00:28:19.094Z,27.00
2022-12-25T00:28:40.159Z,24.00
2022-12-25T00:29:01.217Z,25.40
2022-12-25T00:29:22.272Z,28.40
2022-12-25T00:29:43.325Z,27.10
2022-12-25T00:30:04.382Z,26.40
2022-12-25T00:30:25.470Z,26.00
2022-12-25T00:30:46.508Z,28.20
2022-12-25T00:31:07.696Z,29.20
2022-12-25T00:31:29.006Z,29.40
2022-12-25T00:31:50.173Z,26.50
2022-12-25T00:32:11.416Z,29.90
2022-12-25T00:32:32.524Z,30.20
2022-12-25T00:32:53.540Z,31.50
2022-12-25T00:33:14.613Z,28.00
2022-12-25T00:33:35.658Z,29.20
2022-12-25T00:33:56.718Z,26.40
2022-12-25T00:34:17.778Z,26.80
2022-12-25T00:34:38.895Z,30.60
2022-12-25T00:34:59.944Z,28.90
2022-12-25T00:35:20.984Z,28.90
2022-12-25T00:35:42.047Z,27.90
2022-12-25T00:36:03.113Z,25.90
2022-12-25T00:36:24.156Z,28.60
2022-12-25T00:36:45.249Z,27.30
2022-12-25T00:37:06.282Z,27.30
2022-12-25T00:37:27.497Z,28.20
2022-12-25T00:37:48.563Z,27.40
2022-12-25T00:38:09.623Z,28.30
2022-12-25T00:38:30.677Z,29.40
2022-12-25T00:38:51.747Z,28.40
2022-12-25T00:39:12.802Z,29.70
2022-12-25T00:39:33.858Z,28.90
2022-12-25T00:39:54.930Z,29.30
2022-12-25T00:40:15.989Z,29.50
2022-12-25T00:40:37.055Z,30.30
2022-12-25T00:40:58.118Z,29.40
2022-12-25T00:41:19.196Z,29.70
2022-12-25T00:41:40.247Z,26.80
2022-12-25T00:42:01.323Z,27.20
2022-12-25T00:42:22.355Z,31.30
2022-12-25T00:42:43.562Z,29.10
2022-12-25T00:43:04.617Z,29.20
2022-12-25T00:43:25.680Z,29.10
2022-12-25T00:43:46.804Z,29.50
2022-12-25T00:44:07.856Z,29.60
2022-12-25T00:44:28.896Z,30.20
2022-12-25T00:44:49.972Z,31.20
2022-12-25T00:45:11.032Z,30.80
2022-12-25T00:45:32.155Z,30.90
2022-12-25T00:45:53.283Z,30.20
2022-12-25T00:46:14.520Z,29.20
2022-12-25T00:46:35.725Z,28.40
2022-12-25T00:46:56.794Z,28.80
2022-12-25T00:47:17.928Z,25.00
2022-12-25T00:47:38.992Z,29.70
2022-12-25T00:48:00.128Z,31.80
2022-12-25T00:48:21.176Z,30.00
2022-12-25T00:48:42.206Z,28.80
2022-12-25T00:49:03.270Z,31.40
2022-12-25T00:49:24.316Z,28.30
2022-12-25T00:49:45.389Z,29.20
2022-12-25T00:50:06.441Z,30.30
2022-12-25T00:50:27.508Z,31.40
2022-12-25T00:50:48.549Z,28.80
2022-12-25T00:51:09.651Z,28.30
2022-12-25T00:51:30.689Z,29.50
2022-12-25T00:51:51.764Z,30.70
2022-12-25T00:52:12.819Z,29.20
2022-12-25T00:52:33.889Z,32.10
2022-12-25T00:52:55.077Z,34.10
2022-12-25T00:53:16.136Z,28.40
2022-12-25T00:53:37.238Z,32.10
2022-12-25T00:53:58.281Z,29.70
2022-12-25T00:54:19.338Z,31.20
2022-12-25T00:54:40.410Z,30.10
2022-12-25T00:55:01.484Z,31.50
2022-12-25T00:55:22.548Z,29.60
2022-12-25T00:55:43.601Z,32.70
2022-12-25T00:56:04.663Z,33.50
2022-12-25T00:56:25.741Z,29.40
2022-12-25T00:56:46.784Z,29.00
2022-12-25T00:57:07.837Z,30.40
2022-12-25T00:57:28.902Z,30.20
2022-12-25T00:57:49.963Z,31.20
2022-12-25T00:58:11.202Z,32.20
2022-12-25T00:58:32.297Z,27.00
2022-12-25T00:58:53.343Z,30.40
2022-12-25T00:59:14.392Z,30.20
2022-12-25T00:59:35.460Z,28.20
2022-12-25T00:59:56.508Z,24.70
2022-12-25T01:00:17.596Z,29.40
2022-12-25T01:00:38.701Z,29.20
2022-12-25T01:00:59.763Z,27.50
2022-12-25T01:01:20.968Z,27.80
2022-12-25T01:01:42.417Z,29.10
2022-12-25T01:02:03.676Z,27.40
2022-12-25T01:02:25.196Z,28.50
2022-12-25T01:02:46.606Z,30.00
2022-12-25T01:03:07.783Z,26.10
2022-12-25T01:03:29.165Z,24.90
2022-12-25T01:03:50.198Z,25.40
2022-12-25T01:04:11.268Z,27.00
2022-12-25T01:04:32.342Z,24.70
2022-12-25T01:04:53.396Z,28.10
2022-12-25T01:05:14.435Z,29.70
2022-12-25T01:05:35.556Z,25.00
2022-12-25T01:05:56.567Z,26.90
2022-12-25T01:06:17.629Z,30.00
2022-12-25T01:06:38.687Z,25.50
2022-12-25T01:06:59.753Z,28.50
2022-12-25T01:07:20.802Z,25.60
2022-12-25T01:07:41.897Z,26.80
2022-12-25T01:08:02.912Z,25.90
2022-12-25T01:08:23.974Z,25.00
2022-12-25T01:08:45.199Z,26.10
2022-12-25T01:09:06.255Z,24.10
2022-12-25T01:09:27.312Z,25.90
2022-12-25T01:09:48.401Z,27.40
2022-12-25T01:10:09.522Z,30.00
2022-12-25T01:10:30.541Z,25.80
2022-12-25T01:10:51.606Z,24.40
2022-12-25T01:11:12.655Z,25.20
2022-12-25T01:11:33.717Z,25.50
2022-12-25T01:11:54.775Z,25.60
2022-12-25T01:12:15.870Z,24.30
2022-12-25T01:12:36.913Z,26.40
2022-12-25T01:12:57.971Z,23.60
2022-12-25T01:13:19.047Z,25.30
2022-12-25T01:13:40.148Z,23.50
2022-12-25T01:14:01.248Z,22.40
2022-12-25T01:14:22.284Z,24.30
2022-12-25T01:14:43.366Z,26.20
2022-12-25T01:15:04.464Z,29.80
2022-12-25T01:15:25.509Z,27.60
2022-12-25T01:15:46.574Z,23.90
2022-12-25T01:16:07.710Z,28.20
2022-12-25T01:16:28.831Z,29.10
2022-12-25T01:16:50.005Z,25.50
2022-12-25T01:17:11.082Z,24.90
2022-12-25T01:17:32.137Z,24.90
2022-12-25T01:17:53.216Z,24.90
2022-12-25T01:18:14.277Z,24.50
2022-12-25T01:18:35.342Z,22.90
2022-12-25T01:18:56.463Z,26.40
2022-12-25T01:19:17.533Z,25.50
2022-12-25T01:19:38.583Z,25.10
2022-12-25T01:20:00.173Z,23.60
2022-12-25T01:20:21.208Z,23.60
2022-12-25T01:20:42.262Z,26.50
2022-12-25T01:21:03.379Z,27.10
2022-12-25T01:21:24.406Z,28.80
2022-12-25T01:21:45.481Z,26.20
2022-12-25T01:22:06.562Z,26.30
2022-12-25T01:22:27.623Z,25.10
2022-12-25T01:22:48.679Z,26.10
2022-12-25T01:23:09.744Z,26.40
2022-12-25T01:23:30.789Z,29.90
2022-12-25T01:23:51.859Z,28.60
2022-12-25T01:24:12.918Z,29.10
2022-12-25T01:24:33.992Z,28.40
2022-12-25T01:24:55.053Z,27.10
2022-12-25T01:25:16.123Z,27.00
2022-12-25T01:25:37.181Z,26.80
2022-12-25T01:25:58.256Z,27.50
2022-12-25T01:26:19.316Z,24.40
2022-12-25T01:26:40.369Z,25.50
2022-12-25T01:27:01.436Z,25.60
2022-12-25T01:27:22.502Z,23.90
2022-12-25T01:27:43.575Z,24.90
2022-12-25T01:28:04.618Z,26.60
2022-12-25T01:28:25.708Z,24.40
2022-12-25T01:28:46.737Z,24.30
2022-12-25T01:29:07.815Z,24.70
2022-12-25T01:29:28.888Z,26.70
2022-12-25T01:29:50.104Z,30.00
2022-12-25T01:30:11.161Z,27.30
2022-12-25T01:30:32.231Z,28.10
2022-12-25T01:30:53.281Z,27.90
2022-12-25T01:31:14.426Z,27.50
2022-12-25T01:31:35.526Z,25.30
2022-12-25T01:31:56.596Z,24.90
2022-12-25T01:32:17.647Z,24.70
2022-12-25T01:32:38.711Z,27.80
2022-12-25T01:32:59.782Z,26.90
2022-12-25T01:33:20.840Z,26.00
2022-12-25T01:33:41.907Z,27.60
2022-12-25T01:34:02.970Z,28.90
2022-12-25T01:34:24.030Z,29.40
2022-12-25T01:34:49.262Z,29.30
2022-12-25T01:35:12.228Z,26.70
2022-12-25T01:35:33.285Z,28.30
2022-12-25T01:35:54.350Z,27.40
2022-12-25T01:36:15.400Z,26.60
2022-12-25T01:36:36.468Z,25.00
2022-12-25T01:36:57.516Z,27.70
2022-12-25T01:37:18.589Z,28.10
2022-12-25T01:37:39.645Z,28.60
2022-12-25T01:38:00.696Z,29.80
2022-12-25T01:38:21.766Z,28.40
2022-12-25T01:38:42.825Z,30.40
2022-12-25T01:39:03.883Z,26.50
2022-12-25T01:39:24.945Z,26.10
2022-12-25T01:39:46.047Z,25.80
2022-12-25T01:40:07.217Z,27.00
2022-12-25T01:40:28.275Z,29.00
2022-12-25T01:40:49.343Z,25.10
2022-12-25T01:41:10.405Z,25.90
2022-12-25T01:41:31.460Z,23.40
2022-12-25T01:41:52.521Z,25.60
2022-12-25T01:42:13.618Z,27.90
2022-12-25T01:42:34.654Z,27.00
2022-12-25T01:42:55.728Z,26.50
2022-12-25T01:43:18.729Z,26.50
2022-12-25T01:43:39.853Z,25.50
2022-12-25T01:44:00.922Z,25.30
2022-12-25T01:44:22.004Z,25.50
2022-12-25T01:44:43.048Z,24.60
2022-12-25T01:45:04.100Z,24.50
2022-12-25T01:45:25.369Z,24.80
2022-12-25T01:45:46.454Z,24.90
2022-12-25T01:46:07.627Z,28.00
2022-12-25T01:46:28.732Z,26.70
2022-12-25T01:46:49.770Z,23.20
2022-12-25T01:47:10.815Z,24.20
2022-12-25T01:47:31.887Z,24.80
2022-12-25T01:47:52.937Z,26.40
2022-12-25T01:48:13.999Z,22.90
2022-12-25T01:48:35.088Z,25.30
2022-12-25T01:48:56.131Z,25.90
2022-12-25T01:49:17.223Z,26.40
2022-12-25T01:49:38.251Z,27.00
2022-12-25T01:49:59.311Z,24.50
2022-12-25T01:50:20.363Z,26.30
2022-12-25T01:50:41.448Z,27.30
2022-12-25T01:51:02.515Z,25.20
2022-12-25T01:51:23.592Z,26.10
2022-12-25T01:51:44.655Z,25.20
2022-12-25T01:52:05.696Z,23.80
2022-12-25T01:52:26.751Z,25.60
2022-12-25T01:52:47.810Z,24.40
2022-12-25T01:53:08.870Z,26.10
2022-12-25T01:53:30.044Z,25.30
2022-12-25T01:53:51.076Z,24.50
2022-12-25T01:54:12.119Z,27.70
2022-12-25T01:54:33.202Z,26.40
2022-12-25T01:54:54.252Z,24.70
2022-12-25T01:55:15.329Z,24.80
2022-12-25T01:55:36.400Z,23.00
2022-12-25T01:55:57.483Z,26.00
2022-12-25T01:56:18.569Z,26.80
2022-12-25T01:56:39.623Z,26.90
2022-12-25T01:57:00.673Z,26.50
2022-12-25T01:57:21.711Z,27.30
2022-12-25T01:57:42.773Z,25.70
2022-12-25T01:58:03.836Z,22.60
2022-12-25T01:58:24.905Z,23.70
2022-12-25T01:58:45.971Z,25.10
2022-12-25T01:59:07.049Z,24.80
2022-12-25T01:59:28.122Z,22.70
2022-12-25T01:59:49.153Z,24.30
2022-12-25T02:00:10.219Z,23.40
2022-12-25T02:00:31.275Z,25.30
2022-12-25T02:00:52.392Z,23.20
2022-12-25T02:01:13.795Z,26.00
2022-12-25T02:01:35.004Z,25.00
2022-12-25T02:01:56.173Z,25.00
2022-12-25T02:02:17.410Z,23.90
2022-12-25T02:02:38.665Z,25.80
2022-12-25T02:02:59.865Z,28.20
2022-12-25T02:03:20.956Z,29.70
2022-12-25T02:03:42.024Z,24.60
2022-12-25T02:04:03.082Z,24.20
2022-12-25T02:04:24.151Z,24.10
2022-12-25T02:04:45.217Z,24.80
2022-12-25T02:05:06.273Z,28.60
2022-12-25T02:05:27.344Z,29.00
2022-12-25T02:05:48.468Z,28.20
2022-12-25T02:06:09.524Z,27.70
2022-12-25T02:06:30.578Z,28.70
2022-12-25T02:06:51.642Z,28.10
2022-12-25T02:07:12.701Z,27.80
2022-12-25T02:07:33.764Z,27.70
2022-12-25T02:07:54.842Z,25.90
2022-12-25T02:08:15.886Z,24.30
2022-12-25T02:08:36.944Z,27.10
2022-12-25T02:08:58.001Z,26.20
2022-12-25T02:09:19.065Z,25.90
2022-12-25T02:09:40.126Z,31.10
2022-12-25T02:10:01.176Z,30.20
2022-12-25T02:10:22.236Z,27.80
2022-12-25T02:10:43.348Z,26.70
2022-12-25T02:11:04.402Z,27.70
2022-12-25T02:11:25.475Z,31.80
2022-12-25T02:11:46.548Z,28.30
2022-12-25T02:12:07.608Z,29.20
2022-12-25T02:12:28.663Z,25.00
2022-12-25T02:12:49.749Z,26.60
2022-12-25T02:13:10.829Z,27.80
2022-12-25T02:13:31.869Z,28.20
2022-12-25T02:13:52.933Z,28.50
2022-12-25T02:14:13.994Z,28.50
2022-12-25T02:14:35.097Z,27.10
2022-12-25T02:15:01.106Z,28.90
2022-12-25T02:15:23.108Z,26.00
2022-12-25T02:15:44.161Z,27.80
2022-12-25T02:16:05.266Z,27.10
2022-12-25T02:16:26.347Z,28.50
2022-12-25T02:16:57.941Z,27.30
2022-12-25T02:17:14.485Z,28.10
2022-12-25T02:17:35.551Z,25.80
2022-12-25T02:17:56.620Z,27.50
2022-12-25T02:18:17.695Z,27.50
2022-12-25T02:18:38.736Z,28.30
2022-12-25T02:18:59.789Z,28.00
2022-12-25T02:19:20.850Z,28.20
2022-12-25T02:19:41.913Z,28.90
2022-12-25T02:20:03.004Z,29.90
2022-12-25T02:20:24.033Z,28.40
2022-12-25T02:20:45.094Z,26.40
2022-12-25T02:21:06.159Z,25.20
2022-12-25T02:21:27.220Z,26.90
2022-12-25T02:21:48.308Z,26.20
2022-12-25T02:22:09.362Z,26.80
2022-12-25T02:22:30.434Z,29.00
2022-12-25T02:22:51.585Z,26.40
2022-12-25T02:23:12.624Z,24.00
2022-12-25T02:23:33.695Z,24.30
2022-12-25T02:23:54.756Z,24.90
2022-12-25T02:24:15.821Z,27.80
2022-12-25T02:24:36.877Z,25.60
2022-12-25T02:24:58.051Z,27.30
2022-12-25T02:25:19.059Z,25.20
2022-12-25T02:25:40.134Z,27.10
2022-12-25T02:26:01.203Z,24.20
2022-12-25T02:26:22.297Z,21.60
2022-12-25T02:26:43.323Z,22.20
2022-12-25T02:27:04.654Z,23.90
2022-12-25T02:27:25.679Z,22.10
2022-12-25T02:27:46.742Z,24.30
2022-12-25T02:28:07.794Z,26.70
2022-12-25T02:28:28.860Z,24.40
2022-12-25T02:28:49.929Z,23.80
2022-12-25T02:29:10.994Z,27.00
2022-12-25T02:29:32.129Z,28.70
2022-12-25T02:29:53.176Z,26.10
2022-12-25T02:30:14.214Z,22.50
2022-12-25T02:30:35.268Z,24.30
2022-12-25T02:30:56.319Z,25.70
2022-12-25T02:31:17.473Z,24.30
2022-12-25T02:31:38.636Z,26.10
2022-12-25T02:31:59.779Z,25.40
2022-12-25T02:32:20.872Z,25.30
2022-12-25T02:32:41.898Z,23.90
2022-12-25T02:33:02.953Z,25.10
2022-12-25T02:33:24.012Z,25.20
2022-12-25T02:33:45.147Z,24.90
2022-12-25T02:34:06.169Z,23.10
2022-12-25T02:34:27.231Z,22.30
2022-12-25T02:34:48.289Z,23.80
2022-12-25T02:35:09.364Z,24.40
2022-12-25T02:35:30.401Z,23.30
2022-12-25T02:35:51.507Z,25.60
2022-12-25T02:36:12.531Z,22.30
2022-12-25T02:36:33.579Z,23.30
2022-12-25T02:36:54.663Z,24.00
2022-12-25T02:37:15.704Z,23.60
2022-12-25T02:37:36.912Z,24.00
2022-12-25T02:37:57.988Z,24.50
2022-12-25T02:38:19.041Z,22.40
2022-12-25T02:38:40.136Z,21.30
2022-12-25T02:39:01.190Z,20.90
2022-12-25T02:39:22.311Z,25.10
2022-12-25T02:39:43.343Z,23.10
2022-12-25T02:40:04.429Z,22.50
2022-12-25T02:40:25.482Z,20.90
2022-12-25T02:40:46.529Z,20.50
2022-12-25T02:41:07.601Z,22.00
2022-12-25T02:41:28.646Z,23.10
2022-12-25T02:41:49.705Z,21.40
2022-12-25T02:42:10.807Z,24.80
2022-12-25T02:42:31.844Z,27.80
2022-12-25T02:42:53.064Z,23.30
2022-12-25T02:43:14.112Z,24.30
2022-12-25T02:43:35.172Z,23.10
2022-12-25T02:43:56.231Z,23.70
2022-12-25T02:44:17.320Z,24.00
2022-12-25T02:44:38.361Z,24.20
2022-12-25T02:44:59.439Z,26.70
2022-12-25T02:45:20.477Z,24.70
2022-12-25T02:45:41.574Z,24.60
2022-12-25T02:46:02.825Z,22.50
2022-12-25T02:46:23.958Z,24.10
2022-12-25T02:46:45.009Z,24.20
2022-12-25T02:47:06.051Z,20.80
2022-12-25T02:47:27.107Z,22.10
2022-12-25T02:47:48.198Z,21.80
2022-12-25T02:48:09.403Z,23.80
2022-12-25T02:48:30.461Z,25.80
2022-12-25T02:48:51.530Z,24.70
2022-12-25T02:49:12.591Z,24.40
2022-12-25T02:49:33.645Z,24.70
2022-12-25T02:49:54.697Z,22.70
2022-12-25T02:50:15.773Z,22.00
2022-12-25T02:50:36.816Z,25.00
2022-12-25T02:50:57.879Z,25.80
2022-12-25T02:51:18.951Z,23.40
2022-12-25T02:51:40.002Z,24.50
2022-12-25T02:52:01.064Z,23.90
2022-12-25T02:52:22.122Z,22.80
2022-12-25T02:52:43.187Z,20.50
2022-12-25T02:53:04.244Z,19.80
2022-12-25T02:53:25.461Z,21.70
2022-12-25T02:53:46.506Z,23.50
2022-12-25T02:54:07.563Z,21.30
2022-12-25T02:54:28.619Z,22.60
2022-12-25T02:54:49.682Z,22.90
2022-12-25T02:55:10.764Z,23.30
2022-12-25T02:55:31.814Z,22.50
2022-12-25T02:55:52.865Z,20.90
2022-12-25T02:56:13.965Z,22.80
2022-12-25T02:56:34.980Z,24.10
2022-12-25T02:56:56.062Z,22.40
2022-12-25T02:57:17.108Z,21.30
2022-12-25T02:57:38.171Z,21.00
2022-12-25T02:57:59.236Z,21.60
2022-12-25T02:58:20.306Z,23.70
2022-12-25T02:58:41.387Z,23.20
2022-12-25T02:59:02.440Z,23.60
2022-12-25T02:59:23.495Z,23.60
2022-12-25T02:59:44.553Z,22.10
2022-12-25T03:00:05.626Z,22.50
2022-12-25T03:00:26.676Z,22.60
2022-12-25T03:00:47.774Z,25.50
2022-12-25T03:01:08.864Z,22.30
2022-12-25T03:01:30.060Z,20.50
2022-12-25T03:01:51.242Z,24.80
2022-12-25T03:02:12.549Z,23.80
2022-12-25T03:02:33.709Z,21.30
2022-12-25T03:02:54.909Z,24.50
2022-12-25T03:03:15.995Z,24.50
2022-12-25T03:03:37.138Z,20.50
2022-12-25T03:03:58.316Z,21.00
2022-12-25T03:04:19.379Z,19.30
2022-12-25T03:04:40.450Z,22.60
2022-12-25T03:05:01.550Z,22.80
2022-12-25T03:05:22.569Z,21.40
2022-12-25T03:05:43.646Z,17.70
2022-12-25T03:06:04.734Z,20.30
2022-12-25T03:06:25.793Z,19.60
2022-12-25T03:06:46.894Z,20.30
2022-12-25T03:07:07.916Z,19.70
2022-12-25T03:07:29.008Z,22.60
2022-12-25T03:07:50.097Z,22.50
2022-12-25T03:08:11.158Z,20.70
2022-12-25T03:08:32.220Z,18.10
2022-12-25T03:08:53.325Z,20.60
2022-12-25T03:09:14.359Z,20.60
2022-12-25T03:09:35.421Z,21.80
2022-12-25T03:09:56.505Z,21.80
2022-12-25T03:10:17.575Z,18.60
2022-12-25T03:10:38.612Z,22.80
2022-12-25T03:10:59.682Z,21.40
2022-12-25T03:11:20.742Z,18.70
2022-12-25T03:11:41.786Z,21.30
2022-12-25T03:12:02.872Z,20.30
2022-12-25T03:12:23.935Z,21.50
2022-12-25T03:12:44.970Z,21.40
2022-12-25T03:13:06.028Z,21.50
2022-12-25T03:13:27.094Z,22.90
2022-12-25T03:13:48.173Z,18.80
2022-12-25T03:14:09.393Z,17.90
2022-12-25T03:14:30.455Z,22.30
2022-12-25T03:14:51.550Z,21.70
2022-12-25T03:15:12.671Z,20.00
2022-12-25T03:15:33.708Z,20.30
2022-12-25T03:15:54.775Z,21.40
2022-12-25T03:16:15.867Z,21.90
2022-12-25T03:16:37.029Z,22.20
2022-12-25T03:16:58.135Z,23.40
2022-12-25T03:17:19.192Z,24.10
2022-12-25T03:17:40.279Z,21.10
2022-12-25T03:18:01.355Z,20.50
2022-12-25T03:18:22.417Z,21.10
2022-12-25T03:18:43.475Z,22.20
2022-12-25T03:19:04.523Z,20.10
2022-12-25T03:19:25.758Z,18.00
2022-12-25T03:19:46.809Z,25.30
2022-12-25T03:20:07.868Z,21.30
2022-12-25T03:20:28.944Z,22.30
2022-12-25T03:20:49.991Z,20.80
2022-12-25T03:21:11.323Z,18.20
2022-12-25T03:21:32.359Z,18.80
2022-12-25T03:21:53.411Z,20.50
2022-12-25T03:22:14.539Z,19.20
2022-12-25T03:22:35.582Z,19.20
2022-12-25T03:22:56.624Z,21.10
2022-12-25T03:23:17.664Z,19.80
2022-12-25T03:23:38.792Z,18.20
2022-12-25T03:23:59.835Z,18.10
2022-12-25T03:24:20.928Z,18.50
2022-12-25T03:24:41.979Z,18.20
2022-12-25T03:25:03.034Z,19.20
2022-12-25T03:25:24.091Z,21.90
2022-12-25T03:25:45.163Z,19.90
2022-12-25T03:26:06.244Z,19.70
2022-12-25T03:26:27.284Z,18.20
2022-12-25T03:26:48.347Z,18.10
2022-12-25T03:27:09.392Z,18.20
2022-12-25T03:27:30.446Z,19.60
2022-12-25T03:27:51.522Z,15.70
2022-12-25T03:28:12.561Z,16.10
2022-12-25T03:28:33.668Z,16.60
2022-12-25T03:28:54.696Z,17.70
2022-12-25T03:29:15.761Z,21.50
2022-12-25T03:29:36.816Z,20.80
2022-12-25T03:29:57.946Z,23.50
2022-12-25T03:30:19.042Z,20.50
2022-12-25T03:30:40.147Z,19.70
2022-12-25T03:31:01.267Z,18.60
2022-12-25T03:31:22.394Z,16.60
2022-12-25T03:31:43.413Z,19.00
2022-12-25T03:32:04.564Z,18.00
2022-12-25T03:32:25.615Z,20.00
2022-12-25T03:32:46.682Z,20.50
2022-12-25T03:33:36.714Z,19.80
2022-12-25T03:33:44.878Z,20.80
2022-12-25T03:34:01.747Z,17.80
2022-12-25T03:34:22.813Z,21.50
2022-12-25T03:34:43.861Z,22.70
2022-12-25T03:35:06.388Z,22.60
2022-12-25T03:35:27.523Z,22.20
2022-12-25T03:35:48.560Z,21.20
2022-12-25T03:36:09.601Z,23.40
2022-12-25T03:36:30.662Z,23.50
2022-12-25T03:36:51.716Z,19.30
2022-12-25T03:37:12.767Z,19.10
2022-12-25T03:37:33.885Z,22.60
2022-12-25T03:37:54.921Z,20.80
2022-12-25T03:38:15.985Z,20.10
2022-12-25T03:38:37.034Z,19.50
2022-12-25T03:38:58.095Z,20.40
2022-12-25T03:39:19.144Z,17.80
2022-12-25T03:39:40.249Z,20.50
2022-12-25T03:40:01.285Z,19.80
2022-12-25T03:40:22.508Z,18.70
2022-12-25T03:40:43.559Z,18.10
2022-12-25T03:41:04.612Z,16.80
2022-12-25T03:41:25.683Z,17.00
2022-12-25T03:41:46.730Z,20.10
2022-12-25T03:42:07.796Z,18.80
2022-12-25T03:42:28.848Z,19.00
2022-12-25T03:42:49.903Z,17.20
2022-12-25T03:43:10.959Z,18.50
2022-12-25T03:43:32.021Z,20.80
2022-12-25T03:43:53.088Z,20.80
2022-12-25T03:44:14.154Z,19.70
2022-12-25T03:44:35.216Z,17.60
2022-12-25T03:44:56.258Z,18.40
2022-12-25T03:45:17.317Z,19.30
2022-12-25T03:45:38.448Z,22.50
2022-12-25T03:45:59.508Z,19.40
2022-12-25T03:46:20.637Z,17.60
2022-12-25T03:46:41.813Z,17.40
2022-12-25T03:47:02.856Z,19.20
2022-12-25T03:47:23.906Z,17.60
2022-12-25T03:47:44.964Z,17.40
2022-12-25T03:48:06.037Z,19.30
2022-12-25T03:48:27.085Z,19.70
2022-12-25T03:48:48.160Z,20.90
2022-12-25T03:49:09.220Z,17.10
2022-12-25T03:49:30.267Z,20.20
2022-12-25T03:49:51.329Z,17.90
2022-12-25T03:50:12.390Z,19.60
2022-12-25T03:50:33.448Z,17.60
2022-12-25T03:50:54.542Z,17.10
2022-12-25T03:51:15.662Z,18.10
2022-12-25T03:51:36.708Z,17.70
2022-12-25T03:51:57.765Z,19.70
2022-12-25T03:52:18.836Z,18.10
2022-12-25T03:52:39.887Z,18.40
2022-12-25T03:53:00.941Z,16.00
2022-12-25T03:53:22.026Z,16.60
2022-12-25T03:53:43.071Z,19.00
2022-12-25T03:54:04.124Z,18.40
2022-12-25T03:54:25.187Z,21.20
2022-12-25T03:54:46.229Z,22.90
2022-12-25T03:55:07.336Z,19.00
2022-12-25T03:55:28.365Z,17.30
2022-12-25T03:55:49.428Z,17.00
2022-12-25T03:56:10.533Z,15.10
2022-12-25T03:56:31.593Z,17.60
2022-12-25T03:56:52.648Z,16.50
2022-12-25T03:57:13.712Z,14.50
2022-12-25T03:57:34.762Z,16.20
2022-12-25T03:57:55.860Z,15.50
2022-12-25T03:58:16.913Z,16.30
2022-12-25T03:58:37.974Z,16.10
2022-12-25T03:58:59.031Z,17.00
2022-12-25T03:59:23.780Z,17.30
2022-12-25T03:59:45.282Z,17.70
2022-12-25T04:00:06.359Z,17.70
2022-12-25T04:00:27.443Z,16.60
2022-12-25T04:00:48.491Z,19.50
2022-12-25T04:01:09.601Z,18.30
2022-12-25T04:01:30.832Z,20.20
2022-12-25T04:01:52.098Z,19.20
2022-12-25T04:02:13.382Z,18.50
2022-12-25T04:02:34.680Z,17.30
2022-12-25T04:02:55.988Z,19.20
2022-12-25T04:03:17.180Z,17.80
2022-12-25T04:03:38.314Z,16.00
2022-12-25T04:03:59.399Z,17.00
2022-12-25T04:04:20.466Z,17.90
2022-12-25T04:04:41.523Z,17.10
2022-12-25T04:05:02.574Z,16.50
2022-12-25T04:05:23.623Z,14.40
2022-12-25T04:05:44.688Z,16.80
2022-12-25T04:06:05.734Z,15.40
2022-12-25T04:06:26.801Z,15.80
2022-12-25T04:06:47.879Z,17.60
2022-12-25T04:07:08.957Z,19.60
2022-12-25T04:07:30.023Z,17.20
2022-12-25T04:07:51.061Z,16.40
2022-12-25T04:08:12.117Z,20.00
2022-12-25T04:08:33.180Z,19.10
2022-12-25T04:08:54.233Z,18.70
2022-12-25T04:09:15.292Z,16.40
2022-12-25T04:09:36.367Z,14.50
2022-12-25T04:09:57.442Z,15.30
2022-12-25T04:10:18.498Z,16.60
2022-12-25T04:10:39.551Z,17.30
2022-12-25T04:11:00.608Z,17.10
2022-12-25T04:11:21.662Z,11.70
2022-12-25T04:11:42.740Z,18.60
2022-12-25T04:12:03.934Z,18.50
2022-12-25T04:12:24.991Z,16.10
2022-12-25T04:12:46.048Z,16.80
2022-12-25T04:13:07.113Z,19.80
2022-12-25T04:13:28.160Z,19.40
2022-12-25T04:13:49.214Z,19.70
2022-12-25T04:14:10.285Z,18.80
2022-12-25T04:14:31.332Z,19.00
2022-12-25T04:14:52.393Z,17.80
2022-12-25T04:15:13.447Z,17.50
2022-12-25T04:15:34.548Z,18.40
2022-12-25T04:15:55.636Z,21.70
2022-12-25T04:16:16.747Z,16.90
2022-12-25T04:16:37.797Z,16.10
2022-12-25T04:16:58.887Z,17.50
2022-12-25T04:17:19.955Z,17.60
2022-12-25T04:17:41.016Z,16.40
2022-12-25T04:18:02.076Z,19.10
2022-12-25T04:18:23.172Z,19.70
2022-12-25T04:18:44.242Z,18.90
2022-12-25T04:19:05.314Z,16.00
2022-12-25T04:19:26.368Z,16.40
2022-12-25T04:19:47.431Z,19.80
2022-12-25T04:20:08.494Z,19.70
2022-12-25T04:20:29.550Z,16.70
2022-12-25T04:20:50.611Z,18.60
2022-12-25T04:21:11.687Z,20.80
2022-12-25T04:21:32.744Z,19.20
2022-12-25T04:21:53.793Z,18.90
2022-12-25T04:22:14.995Z,18.50
2022-12-25T04:22:36.214Z,22.10
2022-12-25T04:22:57.262Z,20.10
2022-12-25T04:23:18.321Z,15.90
2022-12-25T04:23:39.395Z,21.10
2022-12-25T04:24:00.446Z,17.80
2022-12-25T04:24:21.494Z,17.40
2022-12-25T04:24:42.574Z,19.50
2022-12-25T04:25:03.643Z,24.00
2022-12-25T04:25:24.700Z,18.80
2022-12-25T04:25:45.751Z,18.90
2022-12-25T04:26:06.844Z,19.00
2022-12-25T04:26:27.903Z,20.80
2022-12-25T04:26:48.959Z,18.80
2022-12-25T04:27:10.018Z,17.70
2022-12-25T04:27:31.096Z,18.80
2022-12-25T04:27:52.185Z,20.10
2022-12-25T04:28:13.219Z,17.10
2022-12-25T04:28:34.304Z,21.20
2022-12-25T04:28:55.345Z,18.30
2022-12-25T04:29:16.403Z,17.20
2022-12-25T04:29:37.458Z,19.50
2022-12-25T04:29:58.534Z,22.70
2022-12-25T04:30:19.601Z,20.20
2022-12-25T04:30:40.650Z,17.90
2022-12-25T04:31:01.810Z,18.20
2022-12-25T04:31:22.868Z,19.00
2022-12-25T04:31:43.980Z,24.90
2022-12-25T04:32:05.024Z,20.50